Time;durP1;ratioP1;P1;durP2;ratioP2;P2;SDS_P1;SDS_P2;PMS_P1;PMS_P2;Temp;Humidity;BMP_temperature;BMP_pressure;BME280_temperature;BME280_humidity;BME280_pressure;Samples;Min_cycle;Max_cycle;Signal;HPM_P1;HPM_P2
2021/04/06 00:03:01;;;;;;;;;;;2.40;99.90;;;;;;5074362;28;19957;-83
2021/04/06 00:05:56;;;;;;;;;;;;;;;;;;;;;
2021/04/06 00:08:40;;;;;;;;;;;;;;;;;;;;;
2021/04/06 00:11:47;;;;;;;;;;;;;;;;;;;;;
2021/04/06 00:20:20;;;;;;;;;;;2.50;99.90;;;;;;5093668;28;19958;-83
2021/04/06 00:23:27;;;;;;;;;;;2.50;99.90;;;;;;5067819;28;19908;-83
2021/04/06 00:53:52;;;;;;;;;;;2.40;99.90;;;;;;5071818;28;19920;-83
2021/04/06 00:56:20;;;;;;;;;;;2.50;99.90;;;;;;5098855;28;19917;-85
2021/04/06 01:08:45;;;;;;;;;;;;;;;;;;;;;
2021/04/06 01:20:11;;;;;;;;;;;2.50;99.90;;;;;;5071320;22;19925;-87
2021/04/06 01:22:36;;;;;;;;;;;2.50;99.90;;;;;;5037114;28;19917;-85
2021/04/06 01:25:08;;;;;;;;;;;2.50;99.90;;;;;;5038600;28;19925;-86
2021/04/06 01:27:33;;;;;;;;;;;2.50;99.90;;;;;;5035694;28;19953;-86
2021/04/06 01:29:59;;;;;;;;;;;2.40;99.90;;;;;;5006311;28;19913;-87
2021/04/06 01:32:26;;;;;;;;;;;2.40;99.90;;;;;;5037427;28;19910;-85
2021/04/06 01:34:52;;;;;;;;;;;2.40;99.90;;;;;;5018506;28;20022;-87
2021/04/06 01:37:22;;;;;;;;;;;2.40;99.90;;;;;;5020767;28;19932;-85
2021/04/06 01:39:50;;;;;;;;;;;2.40;99.90;;;;;;5023534;28;19984;-85
2021/04/06 01:42:16;;;;;;;;;;;2.40;99.90;;;;;;5025526;28;19959;-85
2021/04/06 01:44:45;;;;;;;;;;;2.40;99.90;;;;;;5041535;28;19921;-87
2021/04/06 01:47:13;;;;;;;;;;;2.30;99.90;;;;;;5042169;28;19936;-85
2021/04/06 01:49:39;;;;;;;;;;;2.40;99.90;;;;;;5021560;28;19921;-87
2021/04/06 01:52:04;;;;;;;;;;;2.30;99.90;;;;;;5041205;28;20000;-87
2021/04/06 01:54:30;;;;;;;;;;;2.30;99.90;;;;;;5034665;28;19941;-85
2021/04/06 01:57:00;;;;;;;;;;;2.30;99.90;;;;;;5034989;28;19952;-85
2021/04/06 01:59:34;;;;;;;;;;;2.20;99.90;;;;;;5019824;28;19917;-86
2021/04/06 02:02:01;;;;;;;;;;;2.20;99.90;;;;;;5038250;28;19967;-88
2021/04/06 02:04:28;;;;;;;;;;;2.10;99.90;;;;;;5039591;28;19921;-88
2021/04/06 02:06:56;;;;;;;;;;;2.10;99.90;;;;;;5038879;28;19913;-88
2021/04/06 02:09:22;;;;;;;;;;;2.10;99.90;;;;;;5038780;28;19917;-87
2021/04/06 02:11:48;;;;;;;;;;;2.10;99.90;;;;;;5021833;28;19913;-87
2021/04/06 02:14:14;;;;;;;;;;;2.10;99.90;;;;;;5021183;28;19919;-87
2021/04/06 02:16:51;;;;;;;;;;;2.10;99.90;;;;;;5038619;28;19916;-88
2021/04/06 02:19:21;;;;;;;;;;;2.10;99.90;;;;;;5020558;28;19917;-86
2021/04/06 02:21:53;;;;;;;;;;;2.10;99.90;;;;;;5038982;28;20439;-87
2021/04/06 02:24:40;;;;;;;;;;;2.10;99.90;;;;;;5038944;28;20376;-87
2021/04/06 02:27:06;;;;;;;;;;;2.10;99.90;;;;;;5039589;28;19999;-86
2021/04/06 02:29:38;;;;;;;;;;;2.10;99.90;;;;;;5039033;28;20400;-87
2021/04/06 02:32:08;;;;;;;;;;;2.20;99.90;;;;;;5022144;28;20351;-88
2021/04/06 02:34:37;;;;;;;;;;;2.20;99.90;;;;;;5039494;28;20008;-85
2021/04/06 02:37:03;;;;;;;;;;;2.30;99.90;;;;;;5038981;28;19909;-86
2021/04/06 02:39:29;;;;;;;;;;;2.30;99.90;;;;;;5038429;28;19921;-85
2021/04/06 02:41:54;;;;;;;;;;;2.30;99.90;;;;;;5022253;28;19909;-85
2021/04/06 02:44:20;;;;;;;;;;;2.30;99.90;;;;;;5021219;28;19924;-85
2021/04/06 02:46:51;;;;;;;;;;;2.30;99.90;;;;;;5022107;28;19913;-86
2021/04/06 02:49:16;;;;;;;;;;;2.40;99.90;;;;;;5038599;28;19913;-85
2021/04/06 02:51:42;;;;;;;;;;;2.40;99.90;;;;;;5039649;28;19960;-87
2021/04/06 02:54:07;;;;;;;;;;;2.50;99.90;;;;;;5020657;28;19944;-87
2021/04/06 02:56:35;;;;;;;;;;;2.50;99.90;;;;;;5021728;28;19995;-87
2021/04/06 02:59:16;;;;;;;;;;;2.50;99.90;;;;;;5039037;28;19920;-87
2021/04/06 03:01:42;;;;;;;;;;;2.50;99.90;;;;;;5040274;28;19913;-87
2021/04/06 03:04:25;;;;;;;;;;;2.50;99.90;;;;;;5022121;28;19989;-87
2021/04/06 03:07:00;;;;;;;;;;;2.50;99.90;;;;;;5039011;28;20381;-88
2021/04/06 03:09:26;;;;;;;;;;;2.40;99.90;;;;;;5039871;28;19920;-87
2021/04/06 03:11:52;;;;;;;;;;;2.40;99.90;;;;;;5022565;28;20003;-87
2021/04/06 03:14:22;;;;;;;;;;;2.40;99.90;;;;;;5025973;28;19921;-87
2021/04/06 03:16:49;;;;;;;;;;;2.30;99.90;;;;;;5025189;28;19920;-87
2021/04/06 03:19:15;;;;;;;;;;;2.30;99.90;;;;;;5042892;28;19921;-87
2021/04/06 03:21:41;;;;;;;;;;;2.30;99.90;;;;;;5021710;28;19914;-87
2021/04/06 03:24:07;;;;;;;;;;;2.20;99.90;;;;;;5041179;28;20274;-87
2021/04/06 03:26:33;;;;;;;;;;;2.20;99.90;;;;;;5043041;28;19915;-88
2021/04/06 03:28:59;;;;;;;;;;;2.20;99.90;;;;;;5042156;28;19996;-87
2021/04/06 03:31:26;;;;;;;;;;;2.20;99.90;;;;;;5025386;28;19910;-87
2021/04/06 03:33:52;;;;;;;;;;;2.20;99.90;;;;;;5042137;28;19917;-87
2021/04/06 03:36:25;;;;;;;;;;;2.20;99.90;;;;;;5043296;28;19909;-88
2021/04/06 03:38:52;;;;;;;;;;;2.10;99.90;;;;;;5041360;28;19913;-88
2021/04/06 03:41:18;;;;;;;;;;;2.10;99.90;;;;;;5043168;28;19916;-87
2021/04/06 03:43:44;;;;;;;;;;;2.00;99.90;;;;;;5042245;28;19913;-88
2021/04/06 03:46:10;;;;;;;;;;;2.00;99.90;;;;;;5024480;28;19917;-87
2021/04/06 03:48:37;;;;;;;;;;;1.90;99.90;;;;;;5042115;28;19913;-87
2021/04/06 03:51:22;;;;;;;;;;;1.90;99.90;;;;;;5041599;28;19920;-87
2021/04/06 03:53:48;;;;;;;;;;;1.90;99.90;;;;;;5040610;28;19920;-87
2021/04/06 03:56:13;;;;;;;;;;;1.80;99.90;;;;;;5041200;28;19913;-87
2021/04/06 03:58:47;;;;;;;;;;;1.80;99.90;;;;;;5040662;28;20343;-87
2021/04/06 04:01:12;;;;;;;;;;;1.70;99.90;;;;;;5024286;28;20400;-87
2021/04/06 04:03:38;;;;;;;;;;;1.70;99.90;;;;;;5041004;28;19913;-87
2021/04/06 04:06:04;;;;;;;;;;;1.70;99.90;;;;;;5023541;28;19955;-87
2021/04/06 04:08:30;;;;;;;;;;;1.60;99.90;;;;;;5038047;28;19913;-84
2021/04/06 04:10:56;;;;;;;;;;;1.60;99.90;;;;;;5037149;28;19913;-86
2021/04/06 04:13:21;;;;;;;;;;;1.60;99.90;;;;;;5035862;28;19925;-88
2021/04/06 04:15:47;;;;;;;;;;;1.60;99.90;;;;;;5017370;28;20297;-86
2021/04/06 04:18:12;;;;;;;;;;;1.60;99.90;;;;;;5043322;28;19913;-86
2021/04/06 04:20:38;;;;;;;;;;;1.60;99.90;;;;;;5047383;28;19920;-87
2021/04/06 04:23:05;;;;;;;;;;;1.60;99.90;;;;;;5044411;28;19940;-86
2021/04/06 04:25:31;;;;;;;;;;;1.60;99.90;;;;;;5012493;28;19920;-86
2021/04/06 04:28:00;;;;;;;;;;;1.50;99.90;;;;;;5030243;28;19918;-86
2021/04/06 04:30:40;;;;;;;;;;;1.50;99.90;;;;;;5014892;28;19913;-87
2021/04/06 04:33:06;;;;;;;;;;;1.50;99.90;;;;;;5035071;28;19939;-88
2021/04/06 04:35:33;;;;;;;;;;;1.50;99.90;;;;;;5040279;28;19942;-86
2021/04/06 04:37:58;;;;;;;;;;;1.50;99.90;;;;;;5031140;28;19921;-87
2021/04/06 04:40:24;;;;;;;;;;;1.50;99.90;;;;;;5040989;28;19921;-87
2021/04/06 04:42:50;;;;;;;;;;;1.50;99.90;;;;;;5039334;28;19913;-87
2021/04/06 04:45:16;;;;;;;;;;;1.50;99.90;;;;;;5041767;28;20285;-87
2021/04/06 04:47:42;;;;;;;;;;;1.50;99.90;;;;;;5041271;28;19914;-88
2021/04/06 04:50:08;;;;;;;;;;;1.50;99.90;;;;;;5023338;28;19914;-88
2021/04/06 04:52:33;;;;;;;;;;;1.50;99.90;;;;;;5040020;28;19913;-87
2021/04/06 04:54:58;;;;;;;;;;;1.50;99.90;;;;;;5022985;28;20031;-87
2021/04/06 04:57:24;;;;;;;;;;;1.50;99.90;;;;;;5018731;28;19914;-87
2021/04/06 04:59:49;;;;;;;;;;;1.60;99.90;;;;;;5036920;28;19960;-87
2021/04/06 05:02:15;;;;;;;;;;;1.60;99.90;;;;;;5022877;28;19920;-87
2021/04/06 05:04:40;;;;;;;;;;;1.60;99.90;;;;;;5024540;28;19960;-87
2021/04/06 05:07:06;;;;;;;;;;;1.60;99.90;;;;;;5022434;28;19920;-87
2021/04/06 05:09:31;;;;;;;;;;;1.70;99.90;;;;;;5038133;28;20380;-87
2021/04/06 05:11:57;;;;;;;;;;;1.70;99.90;;;;;;5021940;28;19991;-87
2021/04/06 05:14:24;;;;;;;;;;;1.70;99.90;;;;;;5039749;28;19917;-87
2021/04/06 05:16:50;;;;;;;;;;;1.70;99.90;;;;;;5021681;28;20201;-88
2021/04/06 05:19:15;;;;;;;;;;;1.80;99.90;;;;;;5039802;28;19917;-87
2021/04/06 05:21:40;;;;;;;;;;;1.80;99.90;;;;;;5040909;28;19924;-87
2021/04/06 05:24:06;;;;;;;;;;;2.00;99.90;;;;;;5040341;28;19949;-88
2021/04/06 05:26:31;;;;;;;;;;;2.20;99.90;;;;;;5021234;28;19913;-87
2021/04/06 05:28:57;;;;;;;;;;;2.40;99.90;;;;;;5021057;28;19913;-88
2021/04/06 05:31:22;;;;;;;;;;;2.50;99.90;;;;;;5038179;28;19921;-87
2021/04/06 05:33:48;;;;;;;;;;;2.60;99.90;;;;;;5039882;28;20284;-87
2021/04/06 05:36:13;;;;;;;;;;;2.80;99.90;;;;;;5004243;28;19943;-87
2021/04/06 05:38:39;;;;;;;;;;;3.00;99.90;;;;;;5022674;28;19952;-86
2021/04/06 05:41:04;;;;;;;;;;;3.20;99.90;;;;;;5041362;28;20336;-87
2021/04/06 05:43:30;;;;;;;;;;;3.40;99.90;;;;;;5021866;28;19913;-86
2021/04/06 05:45:56;;;;;;;;;;;3.50;99.90;;;;;;5039584;28;19966;-87
2021/04/06 05:48:23;;;;;;;;;;;3.50;99.90;;;;;;5037867;28;19937;-85
2021/04/06 05:50:52;;;;;;;;;;;3.40;99.90;;;;;;5033381;28;19913;-87
2021/04/06 05:53:21;;;;;;;;;;;3.50;99.90;;;;;;5038769;28;19909;-85
2021/04/06 05:55:47;;;;;;;;;;;3.50;99.90;;;;;;5039156;28;19977;-86
2021/04/06 05:58:12;;;;;;;;;;;3.60;99.90;;;;;;5036933;28;19956;-86
2021/04/06 06:00:38;;;;;;;;;;;3.90;99.90;;;;;;5037735;28;19913;-85
2021/04/06 06:03:03;;;;;;;;;;;4.50;99.90;;;;;;5022624;28;19924;-84
2021/04/06 06:05:29;;;;;;;;;;;4.70;99.90;;;;;;5023328;28;19958;-85
2021/04/06 06:07:55;;;;;;;;;;;4.70;99.90;;;;;;5023414;28;20106;-85
2021/04/06 06:10:24;;;;;;;;;;;4.50;99.90;;;;;;5042147;28;19923;-88
2021/04/06 06:12:49;;;;;;;;;;;4.30;99.90;;;;;;5016512;28;20420;-87
2021/04/06 06:15:15;;;;;;;;;;;4.20;99.90;;;;;;5016980;28;19924;-87
2021/04/06 06:17:40;;;;;;;;;;;4.20;99.90;;;;;;5023597;28;19913;-85
2021/04/06 06:20:16;;;;;;;;;;;4.30;99.90;;;;;;5039760;28;19986;-85
2021/04/06 06:22:41;;;;;;;;;;;6.30;99.90;;;;;;5019810;28;19913;-85
2021/04/06 06:25:08;;;;;;;;;;;8.50;99.90;;;;;;5036070;28;20297;-85
2021/04/06 06:27:39;;;;;;;;;;;7.90;99.90;;;;;;5021311;28;19909;-84
2021/04/06 06:30:17;;;;;;;;;;;7.40;99.90;;;;;;5026818;28;19961;-84
2021/04/06 06:32:42;;;;;;;;;;;7.30;99.90;;;;;;5017559;28;19918;-85
2021/04/06 06:35:08;;;;;;;;;;;6.80;99.90;;;;;;5033665;28;20020;-85
2021/04/06 06:37:34;;;;;;;;;;;6.30;99.90;;;;;;5016072;28;19941;-83
2021/04/06 06:40:04;;;;;;;;;;;6.10;99.90;;;;;;5029846;28;19940;-84
2021/04/06 06:42:31;;;;;;;;;;;5.90;99.90;;;;;;5017292;28;20317;-85
2021/04/06 06:44:56;;;;;;;;;;;5.90;99.90;;;;;;5020150;28;19924;-84
2021/04/06 06:47:23;;;;;;;;;;;6.60;99.90;;;;;;5037058;28;19909;-85
2021/04/06 06:49:53;;;;;;;;;;;7.00;99.90;;;;;;5020390;28;19918;-85
2021/04/06 06:52:21;;;;;;;;;;;7.80;99.90;;;;;;5036221;28;19929;-85
2021/04/06 06:54:47;;;;;;;;;;;8.80;99.90;;;;;;5018823;28;19917;-85
2021/04/06 06:57:14;;;;;;;;;;;8.20;99.90;;;;;;5035938;28;19919;-84
2021/04/06 06:59:41;;;;;;;;;;;7.70;99.90;;;;;;5033337;28;19913;-85
2021/04/06 07:02:26;;;;;;;;;;;7.90;99.90;;;;;;5035255;28;19920;-85
2021/04/06 07:04:54;;;;;;;;;;;8.20;99.90;;;;;;5017517;28;19919;-84
2021/04/06 07:07:19;;;;;;;;;;;9.90;99.90;;;;;;5010338;28;19948;-85
2021/04/06 07:09:46;;;;;;;;;;;13.10;99.90;;;;;;5031737;28;19913;-85
2021/04/06 07:12:13;;;;;;;;;;;14.50;99.90;;;;;;5033712;28;19917;-85
2021/04/06 07:14:39;;;;;;;;;;;14.80;99.90;;;;;;5034531;28;20019;-84
2021/04/06 07:17:06;;;;;;;;;;;14.00;99.90;;;;;;4999642;28;19920;-85
2021/04/06 07:37:06;;;;;;;;;;;;;;;;;;;;;
2021/04/06 07:39:37;;;;;;;;;;;10.80;99.90;;;;;;4989707;28;19920;-82
2021/04/06 07:47:51;;;;;;;;;;;11.50;99.90;;;;;;4980006;28;19921;-83
2021/04/06 07:50:37;;;;;;;;;;;12.40;99.90;;;;;;4985332;28;19918;-81
2021/04/06 07:53:22;;;;;;;;;;;13.70;99.90;;;;;;4977263;28;19973;-83
2021/04/06 07:55:50;;;;;;;;;;;14.20;99.90;;;;;;4994436;28;19914;-85
2021/04/06 07:58:34;;;;;;;;;;;12.40;99.90;;;;;;4998058;28;19918;-82
2021/04/06 08:01:05;;;;;;;;;;;11.10;99.90;;;;;;4983882;28;19971;-82
2021/04/06 08:03:52;;;;;;;;;;;11.40;99.90;;;;;;4999444;28;19914;-83
2021/04/06 08:06:25;;;;;;;;;;;15.40;99.90;;;;;;4994655;28;19924;-84
2021/04/06 08:08:51;;;;;;;;;;;20.70;96.70;;;;;;4986385;28;19993;-85
2021/04/06 08:11:19;;;;;;;;;;;21.80;91.50;;;;;;4996246;28;19949;-83
2021/04/06 08:13:45;;;;;;;;;;;24.70;81.60;;;;;;4996953;28;19924;-82
2021/04/06 08:16:20;;;;;;;;;;;25.60;72.30;;;;;;4980235;28;20012;-83
2021/04/06 08:18:49;;;;;;;;;;;24.60;68.70;;;;;;4994307;28;19938;-83
2021/04/06 08:21:17;;;;;;;;;;;23.90;69.60;;;;;;4997337;28;19960;-83
2021/04/06 08:23:44;;;;;;;;;;;23.10;67.50;;;;;;4999515;28;19974;-83
2021/04/06 08:26:24;;;;;;;;;;;20.40;69.20;;;;;;4996593;28;19925;-82
2021/04/06 08:28:50;;;;;;;;;;;18.00;72.50;;;;;;4997004;28;20393;-82
2021/04/06 08:31:17;;;;;;;;;;;15.60;75.20;;;;;;5000015;28;19914;-81
2021/04/06 08:33:43;;;;;;;;;;;13.80;76.80;;;;;;4984122;28;19920;-82
2021/04/06 08:36:08;;;;;;;;;;;12.50;78.80;;;;;;5000782;28;19914;-85
2021/04/06 08:38:34;;;;;;;;;;;11.50;80.10;;;;;;4999331;28;20365;-83
2021/04/06 08:41:12;;;;;;;;;;;10.90;82.60;;;;;;5000481;28;19922;-82
2021/04/06 08:43:40;;;;;;;;;;;10.20;84.70;;;;;;4999722;28;19918;-82
2021/04/06 08:46:07;;;;;;;;;;;9.70;89.60;;;;;;4983703;28;20378;-82
2021/04/06 08:51:17;;;;;;;;;;;15.10;90.80;;;;;;4999654;28;20409;-85
2021/04/06 08:53:43;;;;;;;;;;;19.10;79.80;;;;;;5000846;28;19916;-84
2021/04/06 08:56:12;;;;;;;;;;;21.60;70.60;;;;;;4997783;28;19913;-83
2021/04/06 08:58:38;;;;;;;;;;;24.30;65.30;;;;;;4999825;28;19914;-83
2021/04/06 09:01:04;;;;;;;;;;;26.50;59.30;;;;;;5003725;28;19928;-83
2021/04/06 09:03:30;;;;;;;;;;;26.00;57.20;;;;;;5002064;28;20397;-84
2021/04/06 09:06:03;;;;;;;;;;;25.20;56.40;;;;;;4983648;28;19918;-83
2021/04/06 09:08:28;;;;;;;;;;;22.80;56.80;;;;;;4996642;28;19921;-84
2021/04/06 09:11:03;;;;;;;;;;;23.00;58.80;;;;;;4998244;28;20382;-84
2021/04/06 09:13:29;;;;;;;;;;;24.90;57.90;;;;;;4998601;28;20374;-84
2021/04/06 09:15:55;;;;;;;;;;;23.40;56.60;;;;;;4997609;28;19922;-83
2021/04/06 09:18:20;;;;;;;;;;;21.10;57.10;;;;;;4998464;28;19914;-84
2021/04/06 09:20:46;;;;;;;;;;;20.40;58.10;;;;;;4994819;28;20370;-83
2021/04/06 09:23:11;;;;;;;;;;;22.40;57.70;;;;;;4981903;28;19929;-84
2021/04/06 09:25:37;;;;;;;;;;;24.50;55.90;;;;;;4996383;28;19926;-85
2021/04/06 09:28:04;;;;;;;;;;;22.70;55.00;;;;;;4998402;28;20012;-84
2021/04/06 09:30:34;;;;;;;;;;;21.70;56.10;;;;;;4997975;28;20000;-82
2021/04/06 09:33:01;;;;;;;;;;;20.60;56.10;;;;;;4997305;28;20374;-83
2021/04/06 09:35:27;;;;;;;;;;;19.10;55.90;;;;;;5005030;28;19913;-82
2021/04/06 09:37:54;;;;;;;;;;;17.60;55.90;;;;;;4998670;28;19914;-82
2021/04/06 09:40:27;;;;;;;;;;;16.10;55.80;;;;;;4980483;28;19910;-81
2021/04/06 09:42:52;;;;;;;;;;;14.70;56.40;;;;;;4997575;28;19914;-82
2021/04/06 09:45:18;;;;;;;;;;;13.20;56.80;;;;;;4995725;28;19929;-81
2021/04/06 09:47:43;;;;;;;;;;;11.90;57.20;;;;;;4994665;28;19924;-82
2021/04/06 09:50:09;;;;;;;;;;;10.80;57.90;;;;;;4998575;28;19949;-82
2021/04/06 09:52:34;;;;;;;;;;;9.80;59.40;;;;;;4995269;28;19918;-82
2021/04/06 09:55:08;;;;;;;;;;;9.10;60.60;;;;;;4994781;28;19922;-83
2021/04/06 09:57:35;;;;;;;;;;;8.60;61.90;;;;;;4996040;28;19968;-83
2021/04/06 10:00:01;;;;;;;;;;;8.20;63.20;;;;;;4997277;28;19921;-82
2021/04/06 10:02:27;;;;;;;;;;;8.20;64.30;;;;;;4995714;28;19918;-83
2021/04/06 10:04:53;;;;;;;;;;;11.50;65.00;;;;;;4998616;28;19922;-84
2021/04/06 10:07:20;;;;;;;;;;;13.60;60.40;;;;;;5000053;28;20230;-84
2021/04/06 10:09:49;;;;;;;;;;;15.60;60.60;;;;;;4999382;28;20004;-84
2021/04/06 10:12:15;;;;;;;;;;;18.70;59.20;;;;;;4999631;28;20607;-84
2021/04/06 10:14:43;;;;;;;;;;;19.50;56.50;;;;;;4998678;28;19910;-84
2021/04/06 10:17:13;;;;;;;;;;;18.10;56.40;;;;;;4999270;28;19913;-84
2021/04/06 10:19:40;;;;;;;;;;;19.40;56.80;;;;;;4993811;28;20009;-85
2021/04/06 10:22:13;;;;;;;;;;;21.40;56.30;;;;;;5001763;28;19910;-84
2021/04/06 10:24:41;;;;;;;;;;;22.80;55.20;;;;;;5000418;28;20452;-84
2021/04/06 10:27:09;;;;;;;;;;;21.30;53.50;;;;;;4998302;28;19918;-84
2021/04/06 10:29:35;;;;;;;;;;;19.20;52.90;;;;;;4998773;28;19920;-84
2021/04/06 10:32:01;;;;;;;;;;;17.20;53.30;;;;;;4998842;28;20005;-82
2021/04/06 10:34:27;;;;;;;;;;;15.40;53.60;;;;;;4997886;28;19918;-84
2021/04/06 10:36:56;;;;;;;;;;;14.30;54.20;;;;;;4998692;28;19964;-84
2021/04/06 10:39:31;;;;;;;;;;;13.90;54.60;;;;;;5001721;28;19949;-84
2021/04/06 10:41:57;;;;;;;;;;;15.30;54.70;;;;;;4994623;28;19914;-83
2021/04/06 10:44:23;;;;;;;;;;;15.30;54.10;;;;;;4980276;28;19913;-83
2021/04/06 10:46:48;;;;;;;;;;;16.00;54.00;;;;;;4979437;28;20267;-83
2021/04/06 10:49:14;;;;;;;;;;;16.00;52.80;;;;;;4981215;28;19924;-84
2021/04/06 10:51:46;;;;;;;;;;;15.30;52.60;;;;;;4996200;28;19924;-83
2021/04/06 10:54:13;;;;;;;;;;;14.60;53.00;;;;;;4999413;28;19918;-83
2021/04/06 10:56:41;;;;;;;;;;;13.80;52.90;;;;;;4997502;28;19913;-82
2021/04/06 10:59:08;;;;;;;;;;;12.90;53.00;;;;;;4991820;28;19915;-83
2021/04/06 11:01:47;;;;;;;;;;;12.00;53.30;;;;;;4980743;28;19940;-83
2021/04/06 11:04:17;;;;;;;;;;;11.40;53.90;;;;;;4988950;28;19914;-84
2021/04/06 11:06:44;;;;;;;;;;;10.90;54.30;;;;;;4994459;28;19914;-82
2021/04/06 11:09:20;;;;;;;;;;;10.40;54.50;;;;;;4993020;28;20321;-83
2021/04/06 11:11:47;;;;;;;;;;;9.80;55.50;;;;;;4993546;28;19914;-83
2021/04/06 11:14:13;;;;;;;;;;;9.10;55.70;;;;;;4994035;28;19914;-83
2021/04/06 11:16:40;;;;;;;;;;;8.50;56.40;;;;;;4995337;28;19914;-83
2021/04/06 11:19:07;;;;;;;;;;;8.10;57.40;;;;;;4978879;28;19925;-82
2021/04/06 11:21:38;;;;;;;;;;;7.80;58.20;;;;;;4994774;28;19913;-83
2021/04/06 11:24:04;;;;;;;;;;;7.60;58.90;;;;;;4997166;28;19917;-83
2021/04/06 11:26:30;;;;;;;;;;;7.40;59.50;;;;;;4996220;28;19928;-83
2021/04/06 11:28:56;;;;;;;;;;;7.30;59.90;;;;;;4995828;28;19917;-82
2021/04/06 11:31:22;;;;;;;;;;;7.50;60.50;;;;;;4998281;28;19968;-82
2021/04/06 11:33:47;;;;;;;;;;;8.00;60.30;;;;;;4992977;28;20334;-82
2021/04/06 11:36:13;;;;;;;;;;;7.90;60.20;;;;;;4979766;28;19925;-83
2021/04/06 11:38:39;;;;;;;;;;;9.80;62.40;;;;;;4998303;28;19921;-84
2021/04/06 11:41:05;;;;;;;;;;;12.40;60.40;;;;;;5002311;28;19917;-84
2021/04/06 11:43:30;;;;;;;;;;;14.60;59.60;;;;;;5002249;28;19972;-84
2021/04/06 11:45:56;;;;;;;;;;;16.30;58.80;;;;;;4996838;28;19937;-85
2021/04/06 11:48:21;;;;;;;;;;;17.70;58.50;;;;;;5003058;28;19941;-84
2021/04/06 11:50:47;;;;;;;;;;;18.70;57.80;;;;;;5004829;28;19967;-85
2021/04/06 11:53:13;;;;;;;;;;;19.40;57.30;;;;;;5009952;28;20374;-83
2021/04/06 11:55:38;;;;;;;;;;;19.10;55.60;;;;;;4998828;28;19917;-84
2021/04/06 11:58:04;;;;;;;;;;;19.50;55.80;;;;;;5002995;28;19957;-85
2021/04/06 12:00:30;;;;;;;;;;;20.10;55.30;;;;;;5006781;28;19914;-85
2021/04/06 12:02:55;;;;;;;;;;;20.50;54.30;;;;;;5002642;28;19914;-83
2021/04/06 12:05:21;;;;;;;;;;;19.00;53.60;;;;;;4998884;28;19921;-84
2021/04/06 12:07:46;;;;;;;;;;;18.90;53.50;;;;;;4997553;28;20358;-85
2021/04/06 12:10:13;;;;;;;;;;;17.60;52.40;;;;;;5001656;28;19916;-83
2021/04/06 12:12:39;;;;;;;;;;;16.20;52.20;;;;;;4998367;28;19933;-82
2021/04/06 12:15:05;;;;;;;;;;;14.80;52.30;;;;;;4998299;28;19914;-82
2021/04/06 12:17:30;;;;;;;;;;;13.90;52.30;;;;;;4988528;28;19956;-83
2021/04/06 12:19:57;;;;;;;;;;;13.50;52.40;;;;;;4999110;28;19953;-83
2021/04/06 12:22:22;;;;;;;;;;;14.40;52.30;;;;;;4996039;28;20283;-83
2021/04/06 12:24:47;;;;;;;;;;;15.30;51.80;;;;;;4980134;28;19921;-84
2021/04/06 12:27:13;;;;;;;;;;;16.40;51.70;;;;;;4998838;28;20467;-83
2021/04/06 12:29:38;;;;;;;;;;;16.70;50.90;;;;;;4996588;28;20329;-84
2021/04/06 12:32:05;;;;;;;;;;;16.80;50.40;;;;;;4989550;28;19949;-83
2021/04/06 12:34:30;;;;;;;;;;;17.30;50.40;;;;;;4991190;28;19921;-84
2021/04/06 12:36:56;;;;;;;;;;;17.90;50.40;;;;;;5003779;28;19914;-84
2021/04/06 12:39:22;;;;;;;;;;;18.50;50.30;;;;;;4999933;28;19936;-84
2021/04/06 12:41:49;;;;;;;;;;;19.00;50.50;;;;;;4992131;28;19914;-85
2021/04/06 12:44:15;;;;;;;;;;;19.00;49.70;;;;;;4988245;28;19913;-83
2021/04/06 12:46:40;;;;;;;;;;;18.50;49.60;;;;;;4994945;28;20034;-84
2021/04/06 12:49:06;;;;;;;;;;;18.60;50.00;;;;;;4998413;28;19918;-84
2021/04/06 12:51:31;;;;;;;;;;;18.30;49.90;;;;;;4998124;28;20027;-84
2021/04/06 12:53:59;;;;;;;;;;;17.20;49.30;;;;;;4996528;28;19930;-84
2021/04/06 12:56:24;;;;;;;;;;;16.10;49.70;;;;;;4998057;28;19929;-82
2021/04/06 12:58:50;;;;;;;;;;;15.00;50.00;;;;;;4999231;28;19922;-86
2021/04/06 13:01:19;;;;;;;;;;;14.10;50.20;;;;;;4998135;28;19929;-85
2021/04/06 13:03:44;;;;;;;;;;;13.80;50.70;;;;;;4978507;28;19941;-83
2021/04/06 13:06:10;;;;;;;;;;;14.30;50.70;;;;;;4998863;28;19921;-82
2021/04/06 13:08:35;;;;;;;;;;;14.10;50.40;;;;;;4999197;28;20025;-83
2021/04/06 13:11:01;;;;;;;;;;;13.70;50.50;;;;;;4982010;28;19918;-82
2021/04/06 13:13:27;;;;;;;;;;;14.10;51.00;;;;;;5002027;28;19920;-83
2021/04/06 13:15:52;;;;;;;;;;;14.80;50.90;;;;;;4990952;28;20319;-82
2021/04/06 13:18:18;;;;;;;;;;;14.80;50.60;;;;;;4999096;28;19920;-83
2021/04/06 13:21:03;;;;;;;;;;;14.40;50.60;;;;;;5046525;22;19932;-82
2021/04/06 13:23:32;;;;;;;;;;;13.50;50.60;;;;;;5008721;28;19913;-83
2021/04/06 13:26:00;;;;;;;;;;;11.90;50.60;;;;;;5038087;28;19953;-84
2021/04/06 13:43:54;;;;;;;;;;;7.60;57.60;;;;;;5011339;28;20336;-82
2021/04/06 13:46:20;;;;;;;;;;;8.30;57.80;;;;;;5012424;28;20024;-83
2021/04/06 13:48:45;;;;;;;;;;;9.20;58.10;;;;;;5021725;28;19975;-84
2021/04/06 13:51:11;;;;;;;;;;;9.60;57.70;;;;;;5017309;28;19972;-83
2021/04/06 13:53:36;;;;;;;;;;;10.10;57.10;;;;;;5027005;28;19913;-82
2021/04/06 13:56:02;;;;;;;;;;;10.20;56.90;;;;;;5026911;28;19920;-85
2021/04/06 13:58:28;;;;;;;;;;;10.10;56.80;;;;;;5015386;23;19956;-83
2021/04/06 14:00:53;;;;;;;;;;;9.90;58.00;;;;;;5014010;28;20441;-84
2021/04/06 14:03:19;;;;;;;;;;;9.60;58.10;;;;;;4995155;28;20032;-83
2021/04/06 14:05:45;;;;;;;;;;;9.20;58.40;;;;;;5017670;28;19959;-83
2021/04/06 14:08:11;;;;;;;;;;;8.70;58.80;;;;;;5015557;28;20299;-83
2021/04/06 14:10:37;;;;;;;;;;;8.10;59.30;;;;;;5011882;28;19917;-83
2021/04/06 14:13:03;;;;;;;;;;;7.60;60.00;;;;;;5008708;28;19913;-83
2021/04/06 14:15:29;;;;;;;;;;;7.40;60.70;;;;;;5015144;28;20408;-81
2021/04/06 14:17:54;;;;;;;;;;;7.20;61.40;;;;;;5015690;28;19910;-83
2021/04/06 14:20:26;;;;;;;;;;;7.40;62.20;;;;;;5016136;28;19940;-82
2021/04/06 14:22:52;;;;;;;;;;;8.10;62.60;;;;;;4998588;28;19910;-83
2021/04/06 14:25:18;;;;;;;;;;;8.90;62.40;;;;;;5015488;28;19920;-84
2021/04/06 14:27:47;;;;;;;;;;;9.50;61.90;;;;;;5011787;28;19921;-84
2021/04/06 14:30:15;;;;;;;;;;;9.90;61.50;;;;;;5016047;28;20404;-83
2021/04/06 14:32:41;;;;;;;;;;;10.00;60.00;;;;;;5011948;28;19920;-83
2021/04/06 14:35:07;;;;;;;;;;;9.70;61.30;;;;;;4997467;28;20351;-84
2021/04/06 14:37:35;;;;;;;;;;;9.40;61.70;;;;;;5015392;28;19910;-82
2021/04/06 14:40:01;;;;;;;;;;;9.40;62.30;;;;;;4998368;28;19921;-82
2021/04/06 14:42:27;;;;;;;;;;;9.10;62.20;;;;;;5008121;28;21361;-83
2021/04/06 14:44:52;;;;;;;;;;;8.90;62.60;;;;;;5016209;28;19952;-83
2021/04/06 14:47:18;;;;;;;;;;;8.50;62.90;;;;;;5017994;28;19917;-84
2021/04/06 14:49:46;;;;;;;;;;;8.10;63.40;;;;;;5010419;28;19959;-84
2021/04/06 14:52:11;;;;;;;;;;;7.80;63.90;;;;;;5013021;28;19941;-83
2021/04/06 14:54:37;;;;;;;;;;;7.50;64.50;;;;;;5016546;28;19982;-83
2021/04/06 14:57:04;;;;;;;;;;;7.00;65.00;;;;;;5015552;28;19914;-82
2021/04/06 14:59:30;;;;;;;;;;;6.60;65.80;;;;;;5018536;28;20308;-82
2021/04/06 15:01:56;;;;;;;;;;;6.10;66.80;;;;;;5016821;28;20008;-82
2021/04/06 15:04:22;;;;;;;;;;;5.70;67.90;;;;;;5013019;28;19953;-82
2021/04/06 15:06:48;;;;;;;;;;;5.30;69.40;;;;;;5013151;28;19914;-84
2021/04/06 15:09:17;;;;;;;;;;;5.10;70.70;;;;;;5018781;28;19914;-82
2021/04/06 15:11:43;;;;;;;;;;;5.00;71.90;;;;;;5018712;28;19945;-84
2021/04/06 15:14:08;;;;;;;;;;;4.90;72.90;;;;;;5017476;28;19921;-85
2021/04/06 15:16:34;;;;;;;;;;;5.10;74.20;;;;;;5019003;28;19917;-84
2021/04/06 15:18:59;;;;;;;;;;;5.60;75.00;;;;;;5019246;28;19913;-84
2021/04/06 15:21:25;;;;;;;;;;;6.20;74.90;;;;;;5019316;28;19924;-85
2021/04/06 15:23:50;;;;;;;;;;;6.60;74.70;;;;;;5001317;28;19980;-83
2021/04/06 15:26:16;;;;;;;;;;;6.80;74.80;;;;;;5002533;28;19925;-84
2021/04/06 15:28:42;;;;;;;;;;;6.90;75.30;;;;;;5001853;28;19918;-86
2021/04/06 15:31:10;;;;;;;;;;;7.00;75.80;;;;;;5018828;28;19913;-86
2021/04/06 15:33:35;;;;;;;;;;;7.10;76.40;;;;;;5020401;28;20376;-85
2021/04/06 15:36:01;;;;;;;;;;;7.10;77.10;;;;;;5017654;28;19967;-84
2021/04/06 15:38:27;;;;;;;;;;;7.10;77.90;;;;;;5018629;28;19914;-85
2021/04/06 15:40:55;;;;;;;;;;;7.10;78.50;;;;;;5018348;28;20058;-84
2021/04/06 15:43:20;;;;;;;;;;;7.00;79.10;;;;;;5017785;28;19917;-85
2021/04/06 15:45:47;;;;;;;;;;;7.00;80.00;;;;;;5019741;28;19920;-86
2021/04/06 15:48:15;;;;;;;;;;;7.00;80.90;;;;;;5019233;28;19913;-85
2021/04/06 15:50:42;;;;;;;;;;;7.10;81.60;;;;;;4999893;28;19917;-84
2021/04/06 15:53:09;;;;;;;;;;;7.20;82.20;;;;;;5017117;28;19914;-85
2021/04/06 15:55:35;;;;;;;;;;;7.30;82.70;;;;;;5002809;28;19952;-85
2021/04/06 15:58:01;;;;;;;;;;;7.40;83.20;;;;;;5021705;28;19921;-85
2021/04/06 16:00:29;;;;;;;;;;;7.40;83.50;;;;;;5018226;28;19968;-85
2021/04/06 16:02:54;;;;;;;;;;;7.20;84.00;;;;;;5017197;28;19921;-85
2021/04/06 16:05:21;;;;;;;;;;;6.90;85.00;;;;;;5018072;28;19917;-85
2021/04/06 16:07:47;;;;;;;;;;;6.70;86.20;;;;;;5000745;28;20005;-86
2021/04/06 16:10:12;;;;;;;;;;;6.40;87.50;;;;;;5019307;28;19914;-85